Descanso, CA

1:49 PM PDT on September 17, 2014 (GMT -0700)
Sherilton Valley | Change Station
CLOSE
Current Station
Personal Weather Station
Location: Descanso, CA
Elevation: 3264 ft
Nearby Weather Stations
Active Advisory: Areal Flood Advisory, Flash Flood Watch Active Notice: Record Report

Elev 3264 ft 32.90 °N, 116.62 °W | Updated 4 minutes ago

Mostly Cloudy
Mostly Cloudy
84.1 °F
Feels Like 85 °F
N
6.0
Wind Variable Wind from West
Gusts 12.0 mph

Today
High -- | Low -- °F
--% Chance of Precip.
Yesterday
High -- | Low -- °F
Precip. -- in
6:31 AM 6:49 PM
Waning Crescent, 33% visible
Pressure 29.71 in
Visibility -9999.0 miles
Clouds
Heat Index 85 °F
Dew Point 62 °F
Humidity 48%
Rainfall 0.00 in
Snow Depth 0 in , 0 in , 1 in
UV Not available.
Pollen 5.10 out of 12
Air Quality Not available.
Flu Activity Not available.
METAR KCZZ 171952Z AUTO 12009KT 31/14 A2983 RMK AO1 SLP060 T03110139

More Conditions Fewer Conditions

Pressure 29.71 in
Visibility -9999.0 miles
Clouds
Heat Index 85 °F
Dew Point 62 °F
Humidity 48%
Rainfall 0.00 in
Snow Depth 0 in , 0 in , 1 in
UV Not available.
Pollen 5.10 out of 12
Air Quality Not available.
Flu Activity Not available.
METAR KCZZ 171952Z AUTO 12009KT 31/14 A2983 RMK AO1 SLP060 T03110139

More Conditions Fewer Conditions

10-Day Weather Forecast

Almanac

Astronomy

Sep. 17, 2014 Rise Set
Actual Time 6:31 AM PDT 6:49 PM PDT
Civil Twilight 6:06 AM PDT 7:14 PM PDT
Nautical Twilight 5:37 AM PDT 7:43 PM PDT
Astronomical Twilight 5:08 AM PDT 8:12 PM PDT
Moon 12:48 AM PDT 2:50 PM PDT
Length of Visible Light 13h 07m
Length of Day
12h 18m
Tomorrow will be 2m 1s shorter.
Waning Crescent, 33% of the Moon is Illuminated
Today
Waning Crescent
Sep 24
New
Oct 1
First Quarter
Oct 8
Full
Oct 15
Last Quarter

Today's Extremes

State Highs State Lows

Community

WunderPhotos

Upload Photos

1,754,161 photos uploaded!

WunderBlogs® & News

Nearby

Snow Depth

Station Depth Elevation
Tahoe City Cross 0 in 6750 ft
Summit Meadow 0 in 9122 ft
Leavitt Meadows 1 in 7200 ft
Adin Mountain 0 in 6200 ft
CSS Lab 1 in 6900 ft

Earthquake Activity

City Distance Mag. Time & Date
La Quinta, California 42 miles 2.7 8:59 PM PDT
2014-09-15
Minimum magnitude displayed is 2.5.

Coastal Water Temperatures

Place Temperature
No Stations Reporting

Nearby Weather Stations